createdAt,value
2022-10-18T00:01:25.262Z,76.29
2022-10-18T00:03:53.161Z,75.80
2022-10-18T00:06:20.976Z,76.17
2022-10-18T00:08:49.748Z,76.18
2022-10-18T00:11:19.415Z,75.59
2022-10-18T00:13:47.361Z,76.11
2022-10-18T00:16:17.565Z,75.58
2022-10-18T00:18:47.935Z,75.74
2022-10-18T00:21:17.850Z,75.96
2022-10-18T00:23:48.527Z,75.99
2022-10-18T00:26:18.117Z,76.09
2022-10-18T00:28:51.078Z,75.51
2022-10-18T00:31:21.180Z,76.10
2022-10-18T00:33:51.450Z,75.85
2022-10-18T00:36:20.053Z,75.85
2022-10-18T00:38:48.950Z,75.46
2022-10-18T00:41:20.499Z,75.72
2022-10-18T00:43:59.763Z,75.95
2022-10-18T00:46:29.657Z,75.90
2022-10-18T00:48:59.514Z,75.94
2022-10-18T00:51:31.912Z,75.79
2022-10-18T00:54:00.052Z,75.79
2022-10-18T00:56:28.064Z,75.88
2022-10-18T00:58:58.476Z,75.72
2022-10-18T01:01:28.377Z,76.02
2022-10-18T01:03:57.395Z,76.27
2022-10-18T01:06:28.130Z,76.11
2022-10-18T01:09:08.102Z,75.73
2022-10-18T01:11:56.920Z,75.77
2022-10-18T01:14:39.511Z,75.59
2022-10-18T01:17:13.149Z,76.14
2022-10-18T01:20:22.526Z,75.84
2022-10-18T01:22:57.720Z,76.07
2022-10-18T01:25:37.629Z,75.90
2022-10-18T01:28:21.065Z,75.77
2022-10-18T01:30:54.929Z,75.82
2022-10-18T01:33:30.047Z,75.97
2022-10-18T01:36:02.767Z,75.90
2022-10-18T01:38:33.333Z,75.44
2022-10-18T01:41:04.330Z,76.23
2022-10-18T01:43:33.883Z,75.60
2022-10-18T01:46:05.704Z,75.92
2022-10-18T01:48:33.966Z,75.69
2022-10-18T01:51:01.786Z,75.94
2022-10-18T01:53:32.171Z,75.73
2022-10-18T01:56:21.739Z,75.26
2022-10-18T01:59:03.639Z,75.93
2022-10-18T02:01:42.252Z,75.55
2022-10-18T02:04:21.411Z,75.91
2022-10-18T02:06:55.804Z,75.80
2022-10-18T02:09:34.326Z,76.02
2022-10-18T02:12:04.463Z,75.93
2022-10-18T02:14:34.046Z,75.73
2022-10-18T02:17:07.136Z,75.75
2022-10-18T02:19:39.631Z,75.45
2022-10-18T02:22:10.763Z,75.26
2022-10-18T02:24:42.245Z,75.46
2022-10-18T02:27:10.647Z,75.74
2022-10-18T02:29:39.354Z,75.30
2022-10-18T02:32:14.269Z,75.57
2022-10-18T02:34:46.182Z,75.65
2022-10-18T02:37:15.622Z,75.53
2022-10-18T02:39:47.242Z,75.61
2022-10-18T02:42:16.569Z,75.54
2022-10-18T02:44:44.426Z,75.44
2022-10-18T02:47:13.941Z,75.32
2022-10-18T02:49:44.166Z,75.86
2022-10-18T02:52:11.981Z,75.58
2022-10-18T02:54:40.086Z,75.91
2022-10-18T02:57:09.535Z,76.45
2022-10-18T02:59:37.333Z,76.23
2022-10-18T03:02:05.371Z,76.13
2022-10-18T03:04:34.665Z,76.08
2022-10-18T03:07:02.501Z,76.10
2022-10-18T03:09:30.380Z,76.63
2022-10-18T03:11:58.476Z,76.06
2022-10-18T03:14:26.377Z,76.53
2022-10-18T03:16:54.498Z,76.50
2022-10-18T03:19:22.358Z,76.01
2022-10-18T03:21:51.565Z,75.99
2022-10-18T03:24:19.472Z,75.72
2022-10-18T03:26:47.564Z,75.84
2022-10-18T03:29:15.421Z,75.97
2022-10-18T03:31:43.502Z,76.28
2022-10-18T03:34:11.320Z,76.56
2022-10-18T03:36:41.329Z,75.90
2022-10-18T03:39:11.980Z,76.13
2022-10-18T03:41:40.065Z,76.21
2022-10-18T03:44:08.005Z,76.43
2022-10-18T03:46:35.956Z,76.44
2022-10-18T03:49:03.878Z,76.61
2022-10-18T03:51:31.816Z,76.62
2022-10-18T03:53:59.686Z,76.50
2022-10-18T03:56:28.965Z,76.23
2022-10-18T03:58:57.245Z,76.29
2022-10-18T04:01:25.304Z,76.66
2022-10-18T04:03:53.129Z,75.89
2022-10-18T04:06:21.121Z,76.10
2022-10-18T04:08:48.946Z,76.23
2022-10-18T04:11:16.720Z,76.24
2022-10-18T04:13:45.898Z,76.28
2022-10-18T04:16:13.738Z,76.28
2022-10-18T04:18:41.570Z,76.48
2022-10-18T04:21:09.360Z,76.22
2022-10-18T04:23:38.762Z,76.84
2022-10-18T04:26:07.329Z,76.97
2022-10-18T04:28:39.818Z,76.82
2022-10-18T04:31:09.686Z,76.61
2022-10-18T04:33:37.889Z,76.20
2022-10-18T04:36:06.218Z,76.30
2022-10-18T04:38:34.079Z,76.33
2022-10-18T04:41:01.900Z,76.75
2022-10-18T04:43:30.113Z,76.44
2022-10-18T04:45:58.048Z,76.72
2022-10-18T04:48:27.760Z,76.19
2022-10-18T04:50:55.712Z,76.21
2022-10-18T04:53:23.605Z,76.15
2022-10-18T04:55:54.911Z,76.45
2022-10-18T04:58:23.473Z,75.91
2022-10-18T05:00:51.793Z,76.56
2022-10-18T05:03:19.627Z,76.07
2022-10-18T05:06:03.955Z,76.58
2022-10-18T05:08:33.882Z,76.68
2022-10-18T05:11:02.746Z,76.14
2022-10-18T05:13:31.495Z,76.50
2022-10-18T05:16:00.875Z,76.79
2022-10-18T05:18:29.070Z,76.35
2022-10-18T05:20:58.721Z,76.19
2022-10-18T05:23:26.628Z,76.70
2022-10-18T05:25:55.237Z,76.33
2022-10-18T05:28:41.111Z,75.93
2022-10-18T05:31:11.608Z,76.41
2022-10-18T05:33:40.153Z,76.01
2022-10-18T05:36:10.434Z,76.18
2022-10-18T05:38:41.843Z,76.43
2022-10-18T05:41:09.893Z,76.59
2022-10-18T05:43:37.677Z,75.97
2022-10-18T05:46:11.822Z,76.60
2022-10-18T05:48:42.801Z,76.38
2022-10-18T05:51:12.305Z,76.18
2022-10-18T05:53:40.330Z,76.13
2022-10-18T05:56:11.665Z,76.10
2022-10-18T05:58:39.881Z,76.06
2022-10-18T06:01:09.345Z,76.03
2022-10-18T06:03:37.610Z,75.58
2022-10-18T06:06:07.591Z,76.12
2022-10-18T06:08:38.064Z,76.32
2022-10-18T06:11:08.033Z,75.77
2022-10-18T06:13:35.993Z,76.16
2022-10-18T06:16:03.767Z,76.07
2022-10-18T06:18:31.761Z,76.50
2022-10-18T06:21:00.063Z,76.07
2022-10-18T06:23:28.909Z,76.42
2022-10-18T06:26:01.368Z,75.88
2022-10-18T06:28:29.773Z,76.18
2022-10-18T06:30:58.206Z,76.22
2022-10-18T06:33:26.128Z,75.85
2022-10-18T06:35:59.109Z,75.70
2022-10-18T06:38:27.765Z,75.34
2022-10-18T06:40:56.787Z,75.93
2022-10-18T06:43:26.393Z,76.00
2022-10-18T06:45:55.283Z,75.72
2022-10-18T06:48:23.873Z,75.71
2022-10-18T06:50:53.276Z,75.81
2022-10-18T06:53:21.097Z,75.68
2022-10-18T06:55:48.923Z,75.62
2022-10-18T06:58:16.966Z,76.22
2022-10-18T07:00:46.977Z,76.16
2022-10-18T07:03:14.961Z,76.53
2022-10-18T07:05:42.990Z,76.18
2022-10-18T07:08:10.936Z,76.36
2022-10-18T07:10:38.795Z,76.29
2022-10-18T07:13:31.396Z,75.78
2022-10-18T07:16:03.538Z,75.86
2022-10-18T07:18:31.763Z,75.97
2022-10-18T07:21:02.437Z,75.66
2022-10-18T07:23:30.482Z,75.59
2022-10-18T07:25:58.380Z,75.33
2022-10-18T07:28:26.318Z,75.34
2022-10-18T07:30:54.692Z,75.85
2022-10-18T07:33:25.884Z,75.08
2022-10-18T07:35:53.689Z,75.08
2022-10-18T07:38:22.699Z,74.72
2022-10-18T07:41:02.377Z,74.62
2022-10-18T07:43:31.014Z,73.81
2022-10-18T07:46:02.524Z,73.72
2022-10-18T07:48:32.334Z,73.21
2022-10-18T07:51:01.107Z,72.83
2022-10-18T07:53:29.830Z,72.70
2022-10-18T07:56:03.493Z,72.69
2022-10-18T07:58:34.689Z,72.88
2022-10-18T08:01:04.255Z,72.65
2022-10-18T08:03:34.199Z,71.85
2022-10-18T08:06:02.408Z,72.23
2022-10-18T08:08:31.217Z,71.45
2022-10-18T08:11:03.400Z,71.07
2022-10-18T08:13:31.689Z,70.54
2022-10-18T08:16:03.785Z,70.18
2022-10-18T08:18:33.249Z,69.46
2022-10-18T08:21:01.293Z,69.05
2022-10-18T08:23:29.343Z,68.17
2022-10-18T08:25:57.312Z,67.93
2022-10-18T08:28:25.347Z,67.24
2022-10-18T08:30:53.498Z,64.69
2022-10-18T08:33:21.338Z,62.25
2022-10-18T08:35:57.473Z,61.35
2022-10-18T08:38:25.773Z,59.22
2022-10-18T08:40:53.784Z,58.93
2022-10-18T08:43:32.619Z,59.21
2022-10-18T08:46:00.704Z,59.55
2022-10-18T08:48:36.387Z,58.87
2022-10-18T08:51:12.692Z,60.42
2022-10-18T08:53:52.412Z,60.85
2022-10-18T08:56:24.308Z,60.98
2022-10-18T08:58:52.178Z,62.42
2022-10-18T09:01:33.643Z,61.50
2022-10-18T09:04:24.252Z,61.36
2022-10-18T09:07:06.381Z,60.74
2022-10-18T09:09:43.137Z,60.96
2022-10-18T09:12:32.215Z,60.89
2022-10-18T09:15:30.756Z,60.76
2022-10-18T09:18:10.331Z,59.99
2022-10-18T09:20:50.061Z,61.55
2022-10-18T09:23:22.945Z,61.78
2022-10-18T09:25:56.707Z,62.46
2022-10-18T09:28:37.359Z,63.91
2022-10-18T09:31:14.358Z,64.31
2022-10-18T09:33:53.334Z,64.99
2022-10-18T09:36:24.495Z,64.84
2022-10-18T09:39:00.327Z,65.50
2022-10-18T09:41:33.473Z,66.19
2022-10-18T09:44:06.736Z,66.38
2022-10-18T09:46:39.898Z,66.09
2022-10-18T09:49:16.339Z,66.59
2022-10-18T09:51:46.073Z,66.76
2022-10-18T09:54:21.645Z,65.50
2022-10-18T09:56:51.936Z,65.21
2022-10-18T09:59:38.673Z,65.26
2022-10-18T10:02:07.557Z,64.22
2022-10-18T10:04:35.745Z,64.02
2022-10-18T10:07:08.035Z,63.90
2022-10-18T10:09:45.862Z,64.65
2022-10-18T10:12:28.445Z,64.61
2022-10-18T10:14:56.766Z,64.56
2022-10-18T10:17:27.579Z,64.64
2022-10-18T10:19:59.884Z,65.46
2022-10-18T10:22:30.483Z,65.95
2022-10-18T10:25:00.863Z,65.29
2022-10-18T10:27:34.985Z,65.17
2022-10-18T10:30:07.062Z,65.21
2022-10-18T10:32:47.810Z,65.71
2022-10-18T10:35:53.574Z,66.16
2022-10-18T10:38:24.960Z,65.44
2022-10-18T10:40:55.116Z,65.37
2022-10-18T10:43:42.539Z,66.35
2022-10-18T10:46:13.687Z,66.09
2022-10-18T10:48:56.289Z,66.28
2022-10-18T10:51:34.641Z,66.22
2022-10-18T10:54:04.706Z,66.72
2022-10-18T10:56:37.056Z,66.96
2022-10-18T10:59:11.656Z,66.16
2022-10-18T11:01:39.511Z,66.27
2022-10-18T11:04:26.436Z,65.88
2022-10-18T11:07:11.082Z,66.69
2022-10-18T11:09:49.259Z,66.81
2022-10-18T11:12:27.661Z,66.85
2022-10-18T11:15:18.089Z,67.33
2022-10-18T11:17:57.423Z,67.25
2022-10-18T11:20:29.526Z,68.03
2022-10-18T11:23:01.798Z,68.04
2022-10-18T11:25:44.479Z,68.70
2022-10-18T11:28:23.295Z,68.32
2022-10-18T11:31:03.563Z,68.37
2022-10-18T11:34:07.599Z,67.94
2022-10-18T11:36:40.373Z,68.09
2022-10-18T11:39:20.525Z,67.75
2022-10-18T11:41:56.571Z,67.87
2022-10-18T11:44:35.667Z,68.22
2022-10-18T11:47:11.151Z,68.17
2022-10-18T11:49:55.101Z,68.02
2022-10-18T11:52:34.449Z,68.29
2022-10-18T11:55:15.615Z,68.67
2022-10-18T11:57:55.838Z,68.29
2022-10-18T12:00:34.394Z,67.93
2022-10-18T12:03:26.310Z,68.60
2022-10-18T12:05:56.708Z,67.64
2022-10-18T12:08:53.545Z,66.85
2022-10-18T12:11:27.082Z,65.64
2022-10-18T12:13:58.870Z,63.95
2022-10-18T12:16:49.858Z,64.55
2022-10-18T12:19:25.410Z,65.33
2022-10-18T12:21:57.521Z,65.58
2022-10-18T12:24:29.175Z,66.61
2022-10-18T12:27:00.855Z,66.58
2022-10-18T12:29:32.557Z,65.50
2022-10-18T12:32:07.344Z,64.39
2022-10-18T12:34:41.773Z,63.61
2022-10-18T12:37:43.990Z,56.83
2022-10-18T12:40:18.823Z,50.17
2022-10-18T12:42:51.379Z,51.56
2022-10-18T12:45:30.094Z,51.91
2022-10-18T12:48:02.888Z,50.89
2022-10-18T12:50:35.107Z,52.40
2022-10-18T12:53:22.793Z,52.39
2022-10-18T12:55:53.615Z,54.20
2022-10-18T12:58:28.721Z,54.67
2022-10-18T13:01:08.035Z,55.57
2022-10-18T13:03:59.502Z,56.06
2022-10-18T13:07:05.935Z,56.57
2022-10-18T13:09:36.454Z,55.95
2022-10-18T13:12:49.086Z,57.27
2022-10-18T13:15:39.612Z,56.88
2022-10-18T13:18:17.107Z,58.39
2022-10-18T13:20:52.196Z,59.23
2022-10-18T13:23:39.137Z,59.23
2022-10-18T13:26:23.105Z,59.81
2022-10-18T13:28:57.579Z,59.79
2022-10-18T13:31:36.317Z,60.16
2022-10-18T13:34:28.482Z,59.82
2022-10-18T13:37:01.267Z,59.25
2022-10-18T13:39:29.816Z,60.54
2022-10-18T13:42:31.755Z,61.32
2022-10-18T13:45:36.147Z,61.94
2022-10-18T13:48:48.094Z,61.94
2022-10-18T13:51:39.099Z,63.14
2022-10-18T13:54:26.370Z,63.39
2022-10-18T13:57:09.634Z,64.19
2022-10-18T13:59:55.473Z,64.13
2022-10-18T14:02:51.546Z,63.84
2022-10-18T14:05:41.293Z,64.73
2022-10-18T14:08:16.251Z,64.34
2022-10-18T14:11:03.270Z,64.60
2022-10-18T14:13:40.606Z,64.80
2022-10-18T14:16:24.697Z,64.38
2022-10-18T14:18:56.448Z,65.37
2022-10-18T14:21:31.549Z,65.55
2022-10-18T14:23:59.991Z,65.16
2022-10-18T14:26:29.356Z,65.68
2022-10-18T14:29:05.382Z,65.52
2022-10-18T14:31:35.955Z,64.73
2022-10-18T14:34:04.330Z,63.39
2022-10-18T14:36:40.756Z,63.69
2022-10-18T14:39:19.633Z,63.08
2022-10-18T14:41:50.967Z,59.91
2022-10-18T14:44:21.410Z,60.33
2022-10-18T14:46:52.453Z,60.45
2022-10-18T14:49:21.556Z,61.53
2022-10-18T14:51:52.236Z,61.90
2022-10-18T14:54:24.004Z,62.17
2022-10-18T14:56:54.644Z,62.24
2022-10-18T14:59:26.069Z,63.77
2022-10-18T15:01:57.710Z,63.66
2022-10-18T15:04:32.570Z,63.85
2022-10-18T15:07:03.008Z,65.01
2022-10-18T15:09:33.257Z,64.74
2022-10-18T15:12:03.124Z,64.65
2022-10-18T15:14:31.794Z,64.60
2022-10-18T15:17:05.584Z,65.83
2022-10-18T15:19:35.505Z,65.17
2022-10-18T15:22:31.187Z,65.96
2022-10-18T15:25:15.247Z,65.85
2022-10-18T15:27:46.277Z,66.21
2022-10-18T15:30:20.620Z,67.22
2022-10-18T15:32:52.118Z,67.18
2022-10-18T15:35:26.176Z,67.61
2022-10-18T15:37:55.711Z,68.39
2022-10-18T15:40:33.744Z,67.94
2022-10-18T15:43:03.944Z,68.73
2022-10-18T15:45:35.428Z,68.97
2022-10-18T15:48:21.681Z,69.39
2022-10-18T15:50:51.831Z,69.53
2022-10-18T15:53:33.778Z,69.56
2022-10-18T15:56:03.637Z,69.92
2022-10-18T15:58:40.184Z,69.93
2022-10-18T16:01:16.329Z,70.53
2022-10-18T16:03:47.374Z,70.56
2022-10-18T16:06:18.303Z,70.28
2022-10-18T16:08:48.552Z,70.66
2022-10-18T16:11:18.623Z,71.56
2022-10-18T16:13:46.851Z,71.18
2022-10-18T16:16:18.128Z,71.64
2022-10-18T16:18:47.362Z,71.40
2022-10-18T16:21:18.792Z,71.47
2022-10-18T16:23:46.697Z,71.93
2022-10-18T16:26:14.596Z,72.22
2022-10-18T16:28:42.967Z,72.25
2022-10-18T16:33:43.440Z,72.49
2022-10-18T16:36:15.701Z,72.47
2022-10-18T16:38:45.087Z,72.80
2022-10-18T16:41:15.777Z,73.36
2022-10-18T16:43:44.597Z,73.09
2022-10-18T16:46:16.601Z,73.15
2022-10-18T16:48:45.280Z,73.14
2022-10-18T16:51:14.610Z,73.56
2022-10-18T16:53:42.817Z,73.37
2022-10-18T16:56:15.583Z,73.52
2022-10-18T16:58:43.718Z,73.45
2022-10-18T17:01:12.956Z,73.57
2022-10-18T17:03:41.526Z,73.95
2022-10-18T17:06:17.586Z,73.49
2022-10-18T17:08:45.943Z,73.85
2022-10-18T17:11:15.821Z,73.70
2022-10-18T17:13:43.988Z,74.42
2022-10-18T17:16:24.074Z,73.64
2022-10-18T17:18:52.368Z,74.22
2022-10-18T17:21:21.902Z,73.63
2022-10-18T17:23:50.068Z,74.34
2022-10-18T17:26:28.798Z,74.22
2022-10-18T17:28:59.520Z,73.79
2022-10-18T17:31:28.122Z,73.90
2022-10-18T17:33:55.976Z,74.13
2022-10-18T17:36:25.272Z,73.85
2022-10-18T17:38:53.333Z,73.89
2022-10-18T17:41:21.784Z,73.67
2022-10-18T17:43:49.954Z,73.78
2022-10-18T17:46:18.139Z,74.30
2022-10-18T17:48:47.484Z,74.25
2022-10-18T17:51:17.529Z,73.88
2022-10-18T17:53:47.288Z,73.87
2022-10-18T17:56:16.475Z,74.41
2022-10-18T17:58:45.265Z,73.99
2022-10-18T18:01:15.258Z,74.25
2022-10-18T18:03:43.775Z,74.72
2022-10-18T18:06:17.696Z,74.28
2022-10-18T18:08:47.975Z,73.89
2022-10-18T18:11:16.804Z,74.15
2022-10-18T18:13:44.703Z,74.23
2022-10-18T18:16:15.045Z,74.46
2022-10-18T18:18:43.219Z,73.94
2022-10-18T18:21:11.235Z,74.13
2022-10-18T18:23:39.797Z,74.13
2022-10-18T18:26:10.626Z,74.35
2022-10-18T18:28:39.275Z,74.03
2022-10-18T18:31:08.255Z,73.97
2022-10-18T18:33:36.387Z,73.75
2022-10-18T18:36:06.782Z,74.10
2022-10-18T18:38:36.847Z,73.89
2022-10-18T18:41:11.160Z,74.15
2022-10-18T18:43:41.273Z,73.74
2022-10-18T18:46:10.416Z,74.31
2022-10-18T18:48:38.641Z,74.63
2022-10-18T18:51:09.283Z,74.31
2022-10-18T18:53:38.422Z,74.12
2022-10-18T18:56:09.107Z,74.12
2022-10-18T18:58:40.170Z,74.08
2022-10-18T19:01:09.746Z,74.61
2022-10-18T19:03:40.236Z,74.01
2022-10-18T19:06:10.978Z,73.91
2022-10-18T19:08:40.850Z,74.11
2022-10-18T19:11:10.008Z,74.40
2022-10-18T19:13:39.200Z,73.92
2022-10-18T19:16:21.636Z,74.45
2022-10-18T19:18:58.902Z,74.43
2022-10-18T19:21:29.280Z,74.76
2022-10-18T19:23:58.028Z,74.34
2022-10-18T19:26:37.918Z,74.23
2022-10-18T19:29:09.829Z,74.13
2022-10-18T19:31:39.230Z,74.77
2022-10-18T19:34:12.236Z,74.60
2022-10-18T19:36:41.616Z,74.34
2022-10-18T19:39:14.774Z,74.59
2022-10-18T19:41:42.934Z,74.83
2022-10-18T19:44:12.701Z,74.80
2022-10-18T19:46:41.120Z,74.69
2022-10-18T19:49:09.469Z,75.05
2022-10-18T19:51:38.578Z,74.21
2022-10-18T19:54:07.062Z,74.31
2022-10-18T19:56:35.849Z,74.46
2022-10-18T19:59:03.854Z,74.59
2022-10-18T20:01:33.318Z,74.36
2022-10-18T20:04:03.785Z,74.04
2022-10-18T20:06:31.972Z,74.70
2022-10-18T20:09:00.357Z,74.54
2022-10-18T20:11:30.212Z,74.79
2022-10-18T20:13:59.629Z,74.10
2022-10-18T20:16:29.643Z,74.36
2022-10-18T20:19:01.145Z,74.01
2022-10-18T20:21:31.426Z,74.39
2022-10-18T20:24:00.658Z,74.57
2022-10-18T20:26:31.560Z,74.34
2022-10-18T20:29:00.191Z,74.34
2022-10-18T20:31:30.441Z,74.34
2022-10-18T20:34:01.704Z,73.98
2022-10-18T20:36:31.902Z,74.35
2022-10-18T20:39:01.197Z,74.01
2022-10-18T20:41:30.879Z,74.29
2022-10-18T20:44:01.160Z,74.12
2022-10-18T20:46:32.466Z,74.09
2022-10-18T20:49:02.162Z,74.11
2022-10-18T20:51:30.299Z,74.18
2022-10-18T20:53:58.641Z,74.42
2022-10-18T20:56:27.555Z,74.44
2022-10-18T20:58:57.760Z,74.43
2022-10-18T21:01:28.249Z,74.55
2022-10-18T21:03:59.297Z,74.21
2022-10-18T21:06:33.141Z,74.35
2022-10-18T21:09:03.298Z,74.33
2022-10-18T21:11:32.220Z,74.33
2022-10-18T21:14:02.692Z,74.41
2022-10-18T21:16:31.859Z,74.70
2022-10-18T21:19:03.498Z,74.38
2022-10-18T21:21:33.439Z,74.73
2022-10-18T21:24:05.339Z,74.64
2022-10-18T21:26:36.938Z,74.36
2022-10-18T21:29:06.572Z,74.70
2022-10-18T21:31:36.510Z,74.50
2022-10-18T21:34:06.470Z,74.60
2022-10-18T21:36:37.835Z,74.48
2022-10-18T21:39:08.005Z,74.00
2022-10-18T21:41:36.341Z,74.35
2022-10-18T21:44:08.319Z,74.49
2022-10-18T21:46:39.238Z,74.14
2022-10-18T21:49:08.178Z,74.09
2022-10-18T21:51:38.354Z,74.44
2022-10-18T21:54:08.573Z,74.45
2022-10-18T21:56:37.158Z,74.31
2022-10-18T21:59:05.392Z,74.33
2022-10-18T22:01:35.385Z,74.42
2022-10-18T22:04:06.522Z,74.47
2022-10-18T22:06:37.188Z,74.43
2022-10-18T22:09:08.311Z,74.33
2022-10-18T22:11:39.108Z,74.05
2022-10-18T22:14:07.184Z,74.51
2022-10-18T22:16:35.383Z,74.34
2022-10-18T22:19:06.387Z,74.49
2022-10-18T22:21:35.391Z,74.40
2022-10-18T22:24:07.805Z,74.87
2022-10-18T22:26:37.905Z,74.53
2022-10-18T22:29:07.785Z,74.73
2022-10-18T22:31:37.626Z,74.65
2022-10-18T22:34:07.830Z,74.90
2022-10-18T22:36:36.113Z,75.58
2022-10-18T22:39:06.507Z,75.28
2022-10-18T22:41:35.608Z,75.18
2022-10-18T22:44:04.253Z,75.13
2022-10-18T22:46:33.160Z,75.29
2022-10-18T22:49:01.116Z,75.16
2022-10-18T22:51:29.039Z,74.82
2022-10-18T22:53:57.037Z,75.19
2022-10-18T22:56:26.928Z,74.68
2022-10-18T22:58:54.885Z,75.07
2022-10-18T23:01:24.406Z,74.71
2022-10-18T23:03:56.070Z,74.99
2022-10-18T23:06:25.900Z,74.77
2022-10-18T23:08:55.578Z,74.64
2022-10-18T23:11:24.533Z,74.81
2022-10-18T23:13:54.168Z,74.53
2022-10-18T23:16:22.337Z,74.46
2022-10-18T23:18:52.030Z,74.58
2022-10-18T23:21:20.975Z,74.51
2022-10-18T23:23:48.931Z,74.57
2022-10-18T23:26:18.758Z,74.72
2022-10-18T23:28:48.407Z,74.68
2022-10-18T23:31:19.162Z,74.72
2022-10-18T23:33:48.347Z,74.94
2022-10-18T23:36:17.021Z,74.85
2022-10-18T23:38:44.982Z,74.81
2022-10-18T23:41:15.157Z,74.87
2022-10-18T23:43:43.777Z,74.62
2022-10-18T23:46:13.085Z,74.75
2022-10-18T23:48:42.611Z,74.74
2022-10-18T23:51:11.421Z,74.65
2022-10-18T23:53:39.642Z,74.74
2022-10-18T23:56:10.029Z,74.34
2022-10-18T23:58:38.564Z,74.75
